LIBD/BRI METAR and TAF weather

Enter ICAO airport designator
Station Type Date Time Source
LIBD METAR 2020/01/27 16:50 UTC NOAA

LIBD 271650Z 24003KT CAVOK 09/06 Q1019


Station Type Date Time Source
LIBD Decoded METAR 2020/01/27 16:50 UTC NOAA

Bari / Palese Macchie, Italy (LIBD) 41-08N 016-47E 49M
Jan 27, 2020 - 11:50 AM EST / 2020.01.27 1650 UTC
Wind: from the WSW (240 degrees) at 3 MPH (3 KT):0
Visibility: greater than 7 mile(s):0
Temperature: 48 F (9 C)
Dew Point: 42 F (6 C)
Relative Humidity: 81%
Pressure (altimeter): 30.09 in. Hg (1019 hPa)
ob: LIBD 271650Z 24003KT CAVOK 09/06 Q1019
cycle: 17

Station Type Date Time Source
LIBD TAF 2020/01/27 12:21 UTC NOAA

TAF LIBD 271100Z 2712/2812 30010KT 9999 SCT040

Example: see airport list